Terminal Aerodrome Forecast
Issued by NWS

Home | Current Version | Previous Version | Text Only | Print | Product List | Glossary On
Versions: 1 2 3 4 5 6 7 8 9 10 11 12 13 14 15 16 17 18 19 20
000
FTUS45 KGJT 292324
TAFTEX
TAF
KTEX 292324Z 3000/3024 31006KT P6SM SKC
     FM300300 06006KT P6SM FEW250
     FM300600 13005KT P6SM SCT250
     FM301200 16006KT P6SM BKN250
     FM302100 19009KT P6SM BKN130=

USA.gov is the U.S. government's official web portal to all federal, state and local government web resources and services.